SAVY/PMY METAR and TAF weather

Enter ICAO airport designator
Station Type Date Time Source
SAVY METAR 2020/01/13 16:30 UTC NOAA

SAVY 131630Z 32020G30KT 5000 BLDU FEW035TCU SCT200 32/12 Q1006


Station Type Date Time Source
SAVY Decoded METAR 2020/01/13 16:30 UTC NOAA

Puerto Madryn, CHT, Argentina (SAVY) 42-45-33S 065-06-10W
Jan 13, 2020 - 11:30 AM EST / 2020.01.13 1630 UTC
Wind: from the NW (320 degrees) at 23 MPH (20 KT) gusting to 35 MPH (30 KT):0
Visibility: 3 mile(s):0
Sky conditions: partly cloudy
Weather: blowing widespread dust; Towering cumulus clouds observed
Temperature: 89 F (32 C)
Dew Point: 53 F (12 C)
Relative Humidity: 29%
Pressure (altimeter): 29.71 in. Hg (1006 hPa)
ob: SAVY 131630Z 32020G30KT 5000 BLDU FEW035TCU SCT200 32/12 Q1006
cycle: 16

Station Type Date Time Source
SAVY TAF UTC NOAA

Error!

Example: see airport list